Meath Environmental Platform

Observations for Trim Patrick St

Time AQI Temp °C Hum % Pres Pa CO μg/m³ H₂S μg/m³ NO μg/m³ NO₂ μg/m³ O₃ μg/m³ SO₂ μg/m³ PM1 μg/m³ PM2.5 μg/m³ PM10 μg/m³
Saturday 1 August 2026
01:09 2 13.7 70 37,275 0.3 3.58 3.51 19.67 38.91 0 6.29 10.94 12.04
01:06 2 13.7 70 35,649 0.28 4.07 3.52 15.67 38.15 0 6.29 11.67 12.84
01:03 2 13.7 69 31,798 0.28 5.63 3.51 19.58 45.75 0 6.29 11.69 12.86
00:57 2 13.7 69 17,788 0.29 3.47 3.5 18.96 39.2 0 8 13.21 14.53
00:55 2 13.8 69 14,869 0.29 4.23 3.48 19.41 43.59 0 7.14 14.62 16.08
00:54 2 13.8 69 13,047 0.3 4.2 3.43 21.46 43.16 0 8.86 15.38 16.92
00:53 2 13.8 69 11,768 0.3 4.3 3.48 17.46 41.84 0 7.14 12.43 13.67
00:52 2 13.8 68 10,463 0.31 5.03 3.43 15.98 34.51 0 9.71 15.48 17.03
00:51 2 13.8 69 8,970 0.32 4.93 3.48 26.86 42.5 0 9.71 16.09 17.7
00:50 2 13.8 68 7,731 0.32 3.99 3.46 21.35 31.77 0 9.71 13.24 14.56
00:49 2 13.9 68 7,274 0.31 3.68 3.42 12.89 38.3 0 7.14 14.67 16.14
00:48 2 13.9 68 6,408 0.31 5.5 3.43 20.09 42.17 0 9.71 15.39 16.93
00:47 2 13.9 67 4,720 0.33 5.66 3.17 26.33 41.98 0 10.57 17.74 19.51
00:46 2 13.9 68 3,217 0.33 4.28 3.17 20.35 32.2 0 6.29 12.54 13.79
00:45 2 13.9 68 2,313 0.33 4.51 3.38 19.04 35.67 0 7.14 14 15.4
00:44 2 13.9 68 1,786 0.32 4.64 3.42 14.89 38.99 0 8.86 14.69 16.16
00:43 2 13.9 69 1,311 0.32 5.55 3.44 22.7 39.76 0 8 14.65 16.12
00:42 2 13.9 69 495 0.33 5.34 3.46 21.57 40 0 8.86 15.31 16.84
00:41 2 13.9 69 113,764 0.33 6.25 3.45 22.84 47.42 0 9.71 16.77 18.44
00:40 2 13.9 69 112,926 0.35 4.67 3.45 30.5 31.71 0 11.43 15.38 16.92